Latest Weather Observations for Goulburn Airport

IDN60801

Issued at 11:33 pm EDT Tuesday 7 December 2021 (issued every 10 minutes, with the page automatically refreshed every 10 minutes)

About weather observations | Map of weather stations | Latest weather observations for NSW | Other Formats
Station Details ID: 070330 Name: GOULBURN AIRPORT AWS Lat: -34.81 Lon: 149.73 Height: 640.0 m
Data from the previous 72 hours. | See also: Recent months at Goulburn Airport
Date/Time
EDT
Temp
°C
App
Temp
°C
Dew
Point
°C
Rel
Hum
%
Delta-T
°C
Wind Press
QNH
hPa
Press
MSL
hPa
Rain since
9am
mm
Dir  Spd
km/h
Gust
km/h
Spd
kts
Gust
kts
07/11:30pm 14.9 13.9 14.6 98 0.2 SSE 13 19 7 10 1013.8 1011.4 0.8
07/11:25pm 14.9 13.9 14.6 98 0.2 SSE 13 19 7 10 1013.7 1011.3 0.8
07/11:00pm 14.7 13.2 14.2 97 0.3 SE 15 20 8 11 1013.4 1010.9 0.8
07/10:30pm 14.2 13.7 13.7 97 0.3 SSE 9 13 5 7 1012.8 1010.4 0.8
07/10:00pm 14.1 13.3 13.0 93 0.6 SE 9 11 5 6 1012.0 1009.5 0.8
07/09:30pm 15.2 16.4 13.9 92 0.8 CALM 0 0 0 0 1011.7 1009.2 0.8
07/09:00pm 16.1 16.5 14.8 92 0.8 N 6 9 3 5 1011.9 1009.4 0.8
07/08:30pm 16.7 15.8 14.9 89 1.1 N 13 17 7 9 1011.8 1009.3 0.8
07/08:00pm 17.3 16.4 14.9 86 1.4 NNE 13 15 7 8 1012.0 1009.5 0.8
07/07:30pm 17.5 17.5 15.3 87 1.3 N 9 11 5 6 1011.6 1009.1 0.8
07/07:00pm 18.5 17.4 15.2 81 2.0 NNW 15 20 8 11 1011.3 1008.9 0.8
07/06:30pm 18.0 16.7 14.7 81 2.0 NNW 15 17 8 9 1011.4 1009.0 0.8
07/06:00pm 18.4 17.9 16.0 86 1.5 N 13 19 7 10 1011.3 1008.9 0.8
07/05:30pm 16.7 15.3 14.5 87 1.3 NW 15 19 8 10 1011.3 1008.9 0.8
07/05:00pm 16.9 14.9 13.8 82 1.8 NW 17 24 9 13 1011.3 1008.9 0.8
07/04:33pm 16.5 13.8 13.0 80 2.0 WSW 19 24 10 13 1011.6 1009.1 0.6
07/04:30pm 17.1 14.4 12.8 76 2.5 WSW 19 24 10 13 1011.7 1009.2 0.0
07/04:09pm 19.9 15.2 9.2 50 5.8 W 24 46 13 25 1011.6 1009.1 0.0
07/04:02pm 23.7 21.6 13.6 53 6.1 NW 17 26 9 14 1010.7 1008.3 0.0
07/04:00pm 23.8 21.7 13.6 52 6.1 NW 17 26 9 14 1010.7 1008.3 0.0
07/03:30pm 24.3 21.6 12.9 49 6.8 NW 19 24 10 13 1011.1 1008.7 0.0
07/03:00pm 23.7 20.3 13.8 53 6.0 W 24 35 13 19 1011.4 1009.0 0.0
07/02:30pm 24.1 20.4 11.4 45 7.4 WNW 22 33 12 18 1011.3 1008.9 0.0
07/02:00pm 24.1 20.7 11.4 45 7.4 W 20 32 11 17 1011.6 1009.1 0.0
07/01:30pm 23.7 20.6 13.3 52 6.2 W 22 32 12 17 1011.9 1009.4 0.0
07/01:00pm 23.7 20.3 12.4 49 6.6 WNW 22 32 12 17 1012.2 1009.8 0.0
07/12:30pm 23.2 20.8 12.8 52 6.1 WNW 17 26 9 14 1012.5 1010.1 0.0
07/12:00pm 24.2 20.9 12.8 49 6.8 W 22 28 12 15 1012.8 1010.4 0.0
07/11:30am 22.7 20.0 11.7 49 6.4 WNW 17 30 9 16 1012.9 1010.5 0.0
07/11:00am 23.9 21.2 12.8 49 6.6 WNW 19 28 10 15 1013.1 1010.7 0.0
07/10:30am 22.5 19.6 12.4 52 5.9 W 19 26 10 14 1013.4 1010.9 0.0
07/10:00am 21.7 19.5 13.3 59 5.0 WNW 17 20 9 11 1013.5 1011.1 0.0
07/09:30am 21.2 19.7 14.1 64 4.2 WNW 15 22 8 12 1013.7 1011.3 0.0
07/09:00am 19.9 18.9 14.5 71 3.2 NW 13 17 7 9 1014.0 1011.6 0.0
07/08:30am 17.8 18.3 14.1 79 2.2 N 4 9 2 5 1014.0 1011.6 0.0
07/08:00am 16.0 15.6 13.1 83 1.7 N 7 9 4 5 1014.0 1011.6 0.0
07/07:30am 14.4 15.3 13.0 91 0.8 CALM 0 0 0 0 1014.0 1011.6 0.0
07/07:00am 13.0 13.9 12.8 99 0.1 CALM 0 0 0 0 1014.0 1011.6 0.0
07/06:30am 11.9 12.4 11.7 99 0.1 CALM 0 0 0 0 1013.9 1011.5 0.0
07/06:00am 11.1 11.4 10.9 99 0.1 CALM 0 0 0 0 1013.6 1011.2 0.0
07/05:30am 11.1 11.4 10.9 99 0.1 CALM 0 0 0 0 1013.6 1011.2 0.0
07/05:00am 11.2 10.8 11.0 99 0.1 SSW 4 7 2 4 1013.3 1010.8 0.0
07/04:30am 11.2 10.8 11.0 99 0.1 SW 4 9 2 5 1013.1 1010.7 0.0
07/04:00am 11.0 11.3 10.8 99 0.1 CALM 0 0 0 0 1013.6 1011.2 0.0
07/03:37am 11.0 10.5 10.8 99 0.1 NE 4 9 2 5 1013.6 1011.2 0.0
07/03:30am 10.8 11.0 10.6 99 0.1 CALM 0 0 0 0 1013.6 1011.2 0.0
07/03:16am 10.9 11.1 10.7 99 0.1 CALM 0 0 0 0 1013.7 1011.3 0.0
07/03:00am 11.2 11.5 11.0 99 0.1 CALM 0 0 0 0 1013.9 1011.5 0.0
07/02:30am 11.3 11.7 11.1 99 0.1 CALM 0 6 0 3 1014.3 1011.9 0.0
07/02:00am 10.6 10.8 10.4 99 0.1 CALM 0 0 0 0 1014.7 1012.3 0.0
07/01:30am 10.9 11.1 10.6 98 0.2 CALM 0 0 0 0 1015.1 1012.7 0.0
07/01:13am 11.1 11.4 10.8 98 0.2 CALM 0 0 0 0 1015.2 1012.8 0.0
07/01:00am 11.9 12.4 11.7 99 0.1 CALM 0 0 0 0 1015.2 1012.8 0.0
07/12:34am 10.9 11.0 10.1 95 0.4 CALM 0 0 0 0 1015.5 1013.1 0.0
07/12:30am 10.9 11.0 10.1 95 0.4 CALM 0 0 0 0 1015.6 1013.2 0.0
07/12:00am 11.9 10.9 11.0 94 0.5 NE 7 9 4 5 1015.8 1013.4 0.0
 
Date/Time
EDT
Temp
°C
App
Temp
°C
Dew
Point
°C
Rel
Hum
%
Delta-T
°C
Wind Press
QNH
hPa
Press
MSL
hPa
Rain since
9am
mm
Dir  Spd
km/h
Gust
km/h
Spd
kts
Gust
kts
06/11:30pm 12.6 10.9 11.3 92 0.7 NE 11 13 6 7 1016.0 1013.6 0.0
06/11:00pm 13.4 11.9 12.0 91 0.8 NE 11 13 6 7 1016.3 1014.0 0.0
06/10:30pm 13.6 12.1 11.8 89 1.0 NNE 11 15 6 8 1016.4 1014.1 0.0
06/10:00pm 13.8 12.3 11.8 88 1.1 NE 11 15 6 8 1016.3 1014.0 0.0
06/09:30pm 13.9 12.4 11.9 88 1.1 NE 11 15 6 8 1016.3 1014.0 0.0
06/09:00pm 14.0 12.1 11.9 87 1.2 NE 13 15 7 8 1016.2 1013.9 0.0
06/08:30pm 14.2 12.7 11.9 86 1.3 NNE 11 13 6 7 1016.4 1014.1 0.0
06/08:00pm 14.7 12.3 11.5 81 1.8 NNE 15 20 8 11 1016.4 1014.1 0.0
06/07:30pm 15.3 12.9 11.5 78 2.1 NE 15 20 8 11 1015.9 1013.5 0.0
06/07:00pm 16.0 13.0 12.0 77 2.2 NE 19 24 10 13 1015.7 1013.3 0.0
06/06:30pm 16.6 14.1 12.4 76 2.4 NNE 17 24 9 13 1015.6 1013.2 0.0
06/06:00pm 16.1 13.6 12.3 78 2.2 NE 17 20 9 11 1015.7 1013.3 0.0
06/05:30pm 15.8 12.4 11.4 75 2.4 NE 20 26 11 14 1016.0 1013.6 0.0
06/05:00pm 16.4 13.0 11.3 72 2.8 NE 20 28 11 15 1016.4 1014.1 0.0
06/04:30pm 16.2 13.0 11.8 75 2.5 NE 20 28 11 15 1017.0 1014.6 0.0
06/04:00pm 16.7 13.2 10.8 68 3.3 NE 20 26 11 14 1017.1 1014.7 0.0
06/03:30pm 17.5 14.2 10.9 65 3.7 NNE 19 24 10 13 1017.3 1014.9 0.0
06/03:00pm 18.1 14.5 10.0 59 4.4 NE 19 24 10 13 1017.4 1015.0 0.0
06/02:30pm 18.6 14.7 10.9 61 4.3 NE 22 28 12 15 1017.5 1015.1 0.0
06/02:00pm 18.1 15.4 10.5 61 4.2 NE 15 22 8 12 1018.0 1015.7 0.0
06/01:30pm 17.6 14.4 9.8 60 4.2 NE 17 26 9 14 1018.3 1015.9 0.0
06/01:00pm 17.3 13.4 9.5 60 4.2 NE 20 26 11 14 1018.7 1016.3 0.0
06/12:30pm 16.8 12.5 9.2 61 4.1 NE 22 32 12 17 1019.1 1016.8 0.0
06/12:00pm 18.0 14.2 9.9 59 4.4 NE 20 30 11 16 1019.2 1016.9 0.0
06/11:30am 16.5 12.6 9.4 63 3.8 NE 20 30 11 16 1019.6 1017.3 0.0
06/11:00am 16.2 11.5 9.4 64 3.6 NE 24 35 13 19 1020.0 1017.6 0.0
06/10:30am 15.9 10.9 8.2 60 4.0 NE 24 32 13 17 1020.3 1017.9 0.0
06/10:00am 15.5 10.5 8.0 61 3.9 ENE 24 33 13 18 1020.3 1017.9 0.0
06/09:30am 16.1 11.0 9.1 63 3.7 NE 26 37 14 20 1020.4 1018.1 0.0
06/09:00am 14.5 9.0 7.5 63 3.6 NE 26 37 14 20 1020.8 1018.5 0.0
06/08:30am 13.9 9.3 8.1 68 3.0 NE 22 32 12 17 1020.8 1018.5 0.0
06/08:00am 12.9 8.9 8.2 73 2.4 NE 19 26 10 14 1020.7 1018.4 0.0
06/07:30am 12.1 9.6 8.4 78 1.9 ENE 11 17 6 9 1020.7 1018.4 0.0
06/07:00am 11.1 9.7 9.4 89 0.9 ESE 7 9 4 5 1020.6 1018.3 0.0
06/06:30am 9.4 7.0 8.6 95 0.4 SE 11 13 6 7 1020.6 1018.3 0.0
06/06:00am 9.5 7.1 8.6 94 0.5 ESE 11 13 6 7 1020.6 1018.3 0.0
06/05:30am 9.7 8.1 8.8 94 0.5 ESE 7 9 4 5 1020.8 1018.5 0.0
06/05:00am 9.7 7.7 8.5 92 0.6 ESE 9 11 5 6 1020.8 1018.5 0.0
06/04:30am 9.8 7.8 8.6 92 0.6 E 9 13 5 7 1020.8 1018.5 0.0
06/04:00am 9.8 6.6 8.4 91 0.7 E 15 20 8 11 1020.8 1018.5 0.0
06/03:30am 9.5 6.7 8.6 94 0.5 ESE 13 19 7 10 1020.6 1018.3 0.0
06/03:29am 9.5 7.1 8.6 94 0.5 ESE 11 19 6 10 1020.6 1018.3 0.0
06/03:00am 9.6 7.6 8.5 93 0.6 E 9 13 5 7 1021.1 1018.8 0.0
06/02:30am 9.3 7.7 8.1 92 0.6 ESE 6 9 3 5 1021.4 1019.1 0.0
06/02:00am 9.5 7.3 7.9 90 0.8 E 9 13 5 7 1021.7 1019.3 0.0
06/01:30am 9.5 6.5 7.8 89 0.8 ENE 13 17 7 9 1022.4 1020.1 0.0
06/01:23am 9.5 6.9 7.9 90 0.8 ENE 11 17 6 9 1022.5 1020.2 0.0
06/01:04am 8.9 6.9 7.2 89 0.8 E 7 9 4 5 1022.7 1020.4 0.0
06/01:00am 9.0 7.0 7.3 89 0.8 E 7 9 4 5 1022.7 1020.4 0.0
06/12:30am 10.1 8.3 7.9 86 1.1 ENE 7 9 4 5 1023.1 1020.9 0.0
06/12:19am 10.2 8.0 8.0 86 1.1 ENE 9 11 5 6 1023.4 1021.1 0.0
06/12:15am 10.2 8.0 7.8 85 1.2 E 9 11 5 6 1023.4 1021.1 0.0
06/12:00am 10.2 7.6 7.8 85 1.2 E 11 13 6 7 1023.5 1021.2 0.0
 
Date/Time
EDT
Temp
°C
App
Temp
°C
Dew
Point
°C
Rel
Hum
%
Delta-T
°C
Wind Press
QNH
hPa
Press
MSL
hPa
Rain since
9am
mm
Dir  Spd
km/h
Gust
km/h
Spd
kts
Gust
kts
05/11:54pm 10.2 7.6 7.8 85 1.2 E 11 15 6 8 1023.5 1021.2 0.0
05/11:30pm 10.0 7.0 7.6 85 1.2 E 13 17 7 9 1023.5 1021.2 0.0
05/11:00pm 10.0 7.7 7.4 84 1.3 E 9 13 5 7 1023.6 1021.3 0.0
05/10:30pm 10.0 7.3 7.4 84 1.3 ESE 11 15 6 8 1024.0 1021.7 0.0
05/10:00pm 10.0 7.3 7.3 83 1.3 E 11 15 6 8 1024.0 1021.7 0.0
05/09:30pm 10.4 7.6 6.9 79 1.7 E 11 15 6 8 1024.2 1021.9 0.0
05/09:00pm 10.7 6.7 6.6 76 2.0 ESE 17 22 9 12 1023.7 1021.4 0.0
05/08:30pm 10.7 7.1 6.8 77 1.9 ESE 15 20 8 11 1023.4 1021.1 0.0
05/08:00pm 10.9 6.8 6.1 72 2.3 ESE 17 20 9 11 1023.0 1020.7 0.0
05/07:30pm 11.2 7.1 6.3 72 2.4 E 17 22 9 12 1023.0 1020.7 0.0
05/07:00pm 11.5 7.6 7.0 74 2.2 E 17 24 9 13 1022.9 1020.6 0.0
05/06:30pm 11.8 7.4 7.3 74 2.2 ESE 20 28 11 15 1022.7 1020.4 0.0
05/06:00pm 12.2 7.3 7.1 71 2.5 E 22 30 12 16 1022.4 1020.1 0.0
05/05:30pm 12.2 7.8 7.3 72 2.5 E 20 28 11 15 1022.5 1020.2 0.0
05/05:00pm 12.4 8.2 8.1 75 2.2 E 20 32 11 17 1022.7 1020.4 0.0
05/04:50pm 12.1 7.3 7.4 73 2.4 E 22 32 12 17 1022.7 1020.4 0.0
05/04:30pm 12.6 7.7 8.3 75 2.2 E 24 32 13 17 1022.6 1020.3 0.0
05/04:00pm 12.1 7.5 8.2 77 2.0 ESE 22 33 12 18 1022.8 1020.5 0.0
05/03:30pm 12.9 7.6 8.4 74 2.3 ESE 26 35 14 19 1022.7 1020.4 0.0
05/03:00pm 12.8 7.2 8.7 76 2.1 E 28 35 15 19 1022.7 1020.4 0.0
05/02:59pm 13.1 7.6 9.0 76 2.1 E 28 35 15 19 1022.7 1020.4 0.0
05/02:45pm 13.8 9.2 9.6 76 2.2 E 24 33 13 18 1022.7 1020.4 0.0
05/02:33pm 12.4 6.8 8.7 78 1.9 E 28 33 15 18 1022.8 1020.5 0.0
05/02:30pm 12.4 6.8 8.7 78 1.9 E 28 35 15 19 1022.8 1020.5 0.0
05/02:00pm 15.2 11.3 9.6 69 3.0 E 20 26 11 14 1022.8 1020.5 0.0
05/01:45pm 13.9 10.0 9.3 74 2.4 ESE 20 30 11 16 1023.0 1020.7 0.0
05/01:30pm 13.4 7.9 9.3 76 2.2 ESE 28 35 15 19 1022.9 1020.6 0.0
05/01:00pm 14.8 10.1 9.4 70 2.9 E 24 32 13 17 1022.8 1020.5 0.0
05/12:30pm 13.7 9.1 9.6 76 2.2 ESE 24 30 13 16 1022.8 1020.5 0.0
05/12:00pm 15.1 10.0 10.5 74 2.5 ESE 28 41 15 22 1022.8 1020.5 0.0
05/11:30am 14.9 10.7 9.7 71 2.8 ESE 22 32 12 17 1022.7 1020.4 0.0
05/11:00am 13.5 8.9 9.7 78 2.0 ESE 24 32 13 17 1022.9 1020.6 0.0
05/10:30am 13.2 8.5 9.1 76 2.1 ESE 24 32 13 17 1022.9 1020.6 0.0
05/10:00am 12.4 7.6 8.9 79 1.8 ESE 24 32 13 17 1022.7 1020.4 0.0
05/09:30am 12.4 8.4 9.1 80 1.7 ESE 20 30 11 16 1022.8 1020.5 0.0
05/09:00am 11.9 8.0 8.6 80 1.7 ESE 19 24 10 13 1022.8 1020.5 0.2
05/08:30am 11.2 7.2 8.1 81 1.6 SE 19 24 10 13 1022.7 1020.4 0.2
05/08:00am 10.8 6.5 7.9 82 1.5 SE 20 26 11 14 1022.5 1020.2 0.2
05/07:53am 10.9 7.2 8.0 82 1.5 SE 17 24 9 13 1022.4 1020.1 0.2
05/07:30am 10.7 7.5 8.3 85 1.2 ESE 15 20 8 11 1022.3 1020.0 0.2
05/07:00am 10.3 7.0 8.2 87 1.1 ESE 15 22 8 12 1022.0 1019.7 0.2
05/06:55am 10.4 7.6 8.7 89 0.9 ESE 13 17 7 9 1022.0 1019.7 0.2
05/06:45am 10.2 7.4 8.5 89 0.9 ESE 13 17 7 9 1022.0 1019.7 0.2
05/06:30am 10.0 7.9 8.4 90 0.8 ESE 9 13 5 7 1021.9 1019.6 0.2
05/06:04am 10.0 8.0 8.8 92 0.6 ESE 9 17 5 9 1021.7 1019.3 0.2
05/06:00am 9.9 7.5 8.7 92 0.6 ESE 11 17 6 9 1021.6 1019.2 0.2
05/05:47am 9.9 7.1 8.5 91 0.7 ESE 13 20 7 11 1021.3 1019.0 0.2
05/05:30am 9.9 6.7 8.5 91 0.7 ESE 15 22 8 12 1021.1 1018.8 0.2
05/05:00am 10.3 6.6 9.4 94 0.5 ESE 19 24 10 13 1020.7 1018.4 0.2
05/04:30am 10.4 7.1 9.6 95 0.4 ESE 17 22 9 12 1020.4 1018.1 0.2
05/04:00am 10.6 6.8 9.8 95 0.4 ESE 20 28 11 15 1020.4 1018.1 0.2
05/03:30am 10.8 8.1 10.2 96 0.3 ESE 15 22 8 12 1020.5 1018.2 0.2
05/03:00am 10.7 8.4 10.4 98 0.2 ESE 13 20 7 11 1020.4 1018.1 0.2
05/02:55am 10.7 8.4 10.4 98 0.2 E 13 19 7 10 1020.3 1017.9 0.2
05/02:37am 10.8 8.5 10.3 97 0.3 E 13 17 7 9 1020.3 1017.9 0.2
05/02:30am 10.9 8.6 10.3 96 0.3 E 13 17 7 9 1020.4 1018.1 0.2
05/02:00am 10.8 7.9 9.7 93 0.6 E 15 19 8 10 1020.6 1018.3 0.2
05/01:30am 10.8 8.4 10.0 95 0.4 ESE 13 19 7 10 1020.9 1018.6 0.2
05/01:00am 10.6 7.7 9.7 94 0.5 ESE 15 22 8 12 1021.0 1018.7 0.2
05/12:30am 10.8 7.4 9.2 90 0.8 ESE 17 22 9 12 1021.1 1018.8 0.2
05/12:00am 10.7 6.8 9.5 92 0.6 ESE 20 28 11 15 1021.1 1018.8 0.2

Other formats

Comma delimited format used in spreadsheet applications
http://www.bom.gov.au/fwo/IDN60801/IDN60801.95716.axf

JavaScript Object Notation format (JSON) in row-major order
http://www.bom.gov.au/fwo/IDN60801/IDN60801.95716.json

Data quality

Most of these data are generated automatically and are frequently updated. Quality checks on data are not normally performed. It is possible for incorrect values to appear. Refer to information at About Latest Weather Observations and please check the disclaimer before using these data.